POE401 KSYR-CYYZ
Flight info
| Callsign | POE401 |
|---|---|
| Flight time | N/A |
| Altitude | 24000 |
| Route | SYR DCT DINES DCT ROC DCT LINNG VERKO1 |
| Aircraft | DH8D/M-SDE2E3FGRY/H |
Departure
| Time | 2026-04-24 00:33 |
|---|---|
| Airport | Syracuse Hancock International Airport (KSYR) |
Arrival
| Time | N/A |
|---|---|
| Airport | Toronto Pearson International Airport (CYYZ) |
| Time | Latitude | Longitude | Altitude | Speed | Heading |
|---|---|---|---|---|---|
| 2026-04-24 00:04 | 43.11336 | -76.11077 | 423 ft | 0 kts | 192° |
| 2026-04-24 00:20 | 43.11347 | -76.11074 | 423 ft | 2 kts | 192° |
| 2026-04-24 00:21 | 43.11361 | -76.11070 | 423 ft | 1 kts | 192° |
| 2026-04-24 00:21 | 43.11372 | -76.11065 | 423 ft | 2 kts | 207° |
| 2026-04-24 00:21 | 43.11385 | -76.11056 | 423 ft | 2 kts | 205° |
| 2026-04-24 00:21 | 43.11392 | -76.11051 | 423 ft | 0 kts | 199° |
| 2026-04-24 00:22 | 43.11398 | -76.11052 | 423 ft | 0 kts | 142° |
| 2026-04-24 00:22 | 43.11402 | -76.11059 | 423 ft | 1 kts | 108° |
| 2026-04-24 00:22 | 43.11402 | -76.11062 | 423 ft | 0 kts | 108° |
| 2026-04-24 00:27 | 43.11402 | -76.11060 | 423 ft | 0 kts | 108° |
| 2026-04-24 00:28 | 43.11400 | -76.11047 | 423 ft | 2 kts | 92° |
| 2026-04-24 00:28 | 43.11402 | -76.10971 | 422 ft | 12 kts | 91° |
| 2026-04-24 00:28 | 43.11401 | -76.10857 | 422 ft | 11 kts | 89° |
| 2026-04-24 00:28 | 43.11402 | -76.10792 | 422 ft | 3 kts | 87° |
| 2026-04-24 00:29 | 43.11403 | -76.10754 | 422 ft | 4 kts | 87° |
| 2026-04-24 00:29 | 43.11405 | -76.10705 | 421 ft | 7 kts | 87° |
| 2026-04-24 00:29 | 43.11409 | -76.10612 | 421 ft | 14 kts | 87° |
| 2026-04-24 00:29 | 43.11370 | -76.10452 | 420 ft | 20 kts | 135° |
| 2026-04-24 00:30 | 43.11284 | -76.10333 | 418 ft | 14 kts | 133° |
| 2026-04-24 00:30 | 43.11214 | -76.10233 | 416 ft | 16 kts | 134° |
| 2026-04-24 00:30 | 43.11115 | -76.10093 | 414 ft | 22 kts | 134° |
| 2026-04-24 00:30 | 43.11026 | -76.09965 | 412 ft | 12 kts | 133° |
| 2026-04-24 00:31 | 43.11006 | -76.09937 | 411 ft | 0 kts | 133° |
| 2026-04-24 00:31 | 43.11004 | -76.09933 | 411 ft | 0 kts | 134° |
| 2026-04-24 00:31 | 43.10995 | -76.09920 | 411 ft | 4 kts | 134° |
| 2026-04-24 00:31 | 43.10926 | -76.09826 | 410 ft | 16 kts | 141° |
| 2026-04-24 00:32 | 43.10905 | -76.09903 | 411 ft | 11 kts | 276° |
| 2026-04-24 00:32 | 43.10895 | -76.10346 | 416 ft | 89 kts | 268° |
| 2026-04-24 00:32 | 43.10862 | -76.11523 | 433 ft | 147 kts | 270° |
| 2026-04-24 00:32 | 43.10818 | -76.13005 | 740 ft | 164 kts | 270° |
| 2026-04-24 00:33 | 43.10791 | -76.14591 | 1244 ft | 175 kts | 272° |
| 2026-04-24 00:33 | 43.10778 | -76.16294 | 1803 ft | 183 kts | 276° |
| 2026-04-24 00:33 | 43.10768 | -76.18047 | 2401 ft | 190 kts | 270° |
| 2026-04-24 00:33 | 43.10635 | -76.19845 | 3117 ft | 190 kts | 269° |
| 2026-04-24 00:34 | 43.10502 | -76.21662 | 3697 ft | 200 kts | 270° |
| 2026-04-24 00:34 | 43.10357 | -76.23614 | 4209 ft | 212 kts | 269° |
| 2026-04-24 00:34 | 43.10228 | -76.25600 | 4939 ft | 211 kts | 274° |
| 2026-04-24 00:34 | 43.10497 | -76.27505 | 5717 ft | 203 kts | 291° |
| 2026-04-24 00:35 | 43.10962 | -76.29305 | 6244 ft | 210 kts | 292° |
| 2026-04-24 00:35 | 43.11444 | -76.31236 | 6720 ft | 213 kts | 291° |
| 2026-04-24 00:35 | 43.11896 | -76.33051 | 7622 ft | 200 kts | 292° |
| 2026-04-24 00:35 | 43.12352 | -76.34856 | 8298 ft | 199 kts | 293° |
| 2026-04-24 00:36 | 43.12791 | -76.36607 | 8978 ft | 195 kts | 292° |
| 2026-04-24 00:36 | 43.13221 | -76.38327 | 9563 ft | 195 kts | 293° |
| 2026-04-24 00:36 | 43.13670 | -76.40127 | 9850 ft | 202 kts | 293° |
| 2026-04-24 00:36 | 43.14126 | -76.41967 | 9919 ft | 206 kts | 292° |
| 2026-04-24 00:37 | 43.14583 | -76.43825 | 9942 ft | 205 kts | 293° |
| 2026-04-24 00:37 | 43.15038 | -76.45676 | 9986 ft | 206 kts | 293° |
| 2026-04-24 00:37 | 43.15496 | -76.47543 | 9981 ft | 207 kts | 293° |
| 2026-04-24 00:37 | 43.15957 | -76.49422 | 10024 ft | 209 kts | 293° |
| 2026-04-24 00:38 | 43.16421 | -76.51312 | 10007 ft | 211 kts | 293° |
| 2026-04-24 00:38 | 43.16869 | -76.53158 | 10388 ft | 196 kts | 293° |